createdAt,value
2022-08-09T00:00:25.762Z,98476.50
2022-08-09T00:02:59.432Z,98473.72
2022-08-09T00:06:19.336Z,98474.13
2022-08-09T00:08:32.372Z,98474.88
2022-08-09T00:11:24.242Z,98479.59
2022-08-09T00:13:58.425Z,98480.69
2022-08-09T00:16:36.622Z,98486.56
2022-08-09T00:19:11.790Z,98490.41
2022-08-09T00:21:56.680Z,98480.88
2022-08-09T00:24:31.880Z,98482.94
2022-08-09T00:27:06.499Z,98476.63
2022-08-09T00:30:23.357Z,98476.88
2022-08-09T00:32:32.781Z,98471.22
2022-08-09T00:35:08.498Z,98485.97
2022-08-09T00:37:43.574Z,98485.84
2022-08-09T00:40:19.833Z,98479.03
2022-08-09T00:44:16.317Z,98489.63
2022-08-09T00:45:53.923Z,98483.78
2022-08-09T00:48:27.556Z,98493.41
2022-08-09T00:51:12.063Z,98493.16
2022-08-09T00:53:47.330Z,98492.44
2022-08-09T00:56:25.031Z,98496.69
2022-08-09T00:58:59.807Z,98491.25
2022-08-09T01:01:44.896Z,98498.75
2022-08-09T01:04:28.195Z,98490.06
2022-08-09T01:07:15.191Z,98486.44
2022-08-09T01:09:57.630Z,98491.75
2022-08-09T01:12:39.917Z,98493.94
2022-08-09T01:15:18.752Z,98500.94
2022-08-09T01:17:58.890Z,98499.56
2022-08-09T01:20:43.164Z,98496.84
2022-08-09T01:24:02.774Z,98498.34
2022-08-09T01:26:53.437Z,98497.59
2022-08-09T01:29:48.614Z,98492.44
2022-08-09T01:32:36.006Z,98487.34
2022-08-09T01:35:28.841Z,98501.28
2022-08-09T01:38:15.783Z,98505.56
2022-08-09T01:41:03.128Z,98504.69
2022-08-09T01:43:51.573Z,98491.66
2022-08-09T01:46:29.935Z,98494.00
2022-08-09T01:49:10.474Z,98501.75
2022-08-09T01:51:54.382Z,98500.00
2022-08-09T01:54:32.639Z,98502.38
2022-08-09T01:57:10.922Z,98505.66
2022-08-09T01:59:53.593Z,98499.44
2022-08-09T02:02:36.789Z,98499.25
2022-08-09T02:05:16.194Z,98503.72
2022-08-09T02:08:40.511Z,98507.00
2022-08-09T02:10:52.563Z,98511.13
2022-08-09T02:13:37.410Z,98516.88
2022-08-09T02:16:16.236Z,98514.41
2022-08-09T02:18:52.060Z,98508.34
2022-08-09T02:21:26.356Z,98506.31
2022-08-09T02:24:06.060Z,98514.00
2022-08-09T02:26:41.595Z,98513.84
2022-08-09T02:29:22.209Z,98525.06
2022-08-09T02:32:02.679Z,98522.94
2022-08-09T02:34:51.849Z,98514.78
2022-08-09T02:37:36.718Z,98518.63
2022-08-09T02:40:15.052Z,98511.63
2022-08-09T02:43:01.574Z,98503.88
2022-08-09T02:45:40.445Z,98517.59
2022-08-09T02:48:30.677Z,98512.44
2022-08-09T02:51:07.439Z,98512.22
2022-08-09T02:53:59.525Z,98513.63
2022-08-09T02:56:36.483Z,98514.31
2022-08-09T02:59:17.304Z,98515.94
2022-08-09T03:02:06.147Z,98512.19
2022-08-09T03:04:43.048Z,98509.22
2022-08-09T03:07:19.709Z,98510.63
2022-08-09T03:09:56.793Z,98508.09
2022-08-09T03:12:35.954Z,98511.22
2022-08-09T03:15:11.723Z,98512.00
2022-08-09T03:17:45.878Z,98511.81
2022-08-09T03:20:32.508Z,98506.56
2022-08-09T03:23:15.185Z,98508.75
2022-08-09T03:26:04.667Z,98507.59
2022-08-09T03:28:39.208Z,98506.47
2022-08-09T03:31:22.491Z,98506.25
2022-08-09T03:33:58.094Z,98512.88
2022-08-09T03:36:32.952Z,98506.69
2022-08-09T03:39:07.174Z,98505.63
2022-08-09T03:41:44.765Z,98503.72
2022-08-09T03:44:22.509Z,98518.75
2022-08-09T03:47:05.439Z,98514.91
2022-08-09T03:49:58.377Z,98527.63
2022-08-09T03:52:35.008Z,98523.00
2022-08-09T03:55:10.950Z,98521.22
2022-08-09T03:57:57.411Z,98528.78
2022-08-09T04:00:40.684Z,98529.34
2022-08-09T04:03:24.610Z,98532.91
2022-08-09T04:06:08.836Z,98526.63
2022-08-09T04:08:46.761Z,98525.91
2022-08-09T04:11:19.981Z,98529.28
2022-08-09T04:14:53.246Z,98527.34
2022-08-09T04:16:46.444Z,98534.28
2022-08-09T04:19:30.017Z,98527.50
2022-08-09T04:22:13.180Z,98541.91
2022-08-09T04:24:47.753Z,98539.28
2022-08-09T04:27:22.104Z,98540.56
2022-08-09T04:29:55.684Z,98549.00
2022-08-09T04:32:34.035Z,98543.03
2022-08-09T04:35:13.305Z,98547.63
2022-08-09T04:37:49.672Z,98553.75
2022-08-09T04:40:44.328Z,98565.00
2022-08-09T04:43:19.748Z,98564.19
2022-08-09T04:45:54.510Z,98571.03
2022-08-09T04:48:33.401Z,98572.13
2022-08-09T04:51:06.750Z,98570.78
2022-08-09T04:53:40.597Z,98574.47
2022-08-09T04:56:17.035Z,98580.34
2022-08-09T04:58:53.286Z,98580.25
2022-08-09T05:01:28.535Z,98582.09
2022-08-09T05:04:06.043Z,98582.31
2022-08-09T05:06:39.470Z,98588.78
2022-08-09T05:09:17.615Z,98597.00
2022-08-09T05:11:52.037Z,98594.16
2022-08-09T05:14:26.922Z,98598.59
2022-08-09T05:17:00.108Z,98594.56
2022-08-09T05:19:44.651Z,98597.75
2022-08-09T05:22:33.332Z,98606.63
2022-08-09T05:25:12.468Z,98601.81
2022-08-09T05:27:50.777Z,98593.47
2022-08-09T05:30:24.473Z,98600.28
2022-08-09T05:33:03.271Z,98602.09
2022-08-09T05:35:46.928Z,98598.94
2022-08-09T05:38:24.178Z,98604.16
2022-08-09T05:41:01.220Z,98607.00
2022-08-09T05:43:36.189Z,98597.63
2022-08-09T05:46:10.732Z,98599.69
2022-08-09T05:48:44.257Z,98603.41
2022-08-09T05:51:42.895Z,98605.50
2022-08-09T05:54:15.312Z,98603.97
2022-08-09T05:56:55.141Z,98601.91
2022-08-09T05:59:31.214Z,98594.06
2022-08-09T06:02:05.571Z,98598.56
2022-08-09T06:04:44.439Z,98602.47
2022-08-09T06:07:21.318Z,98595.34
2022-08-09T06:10:02.840Z,98600.28
2022-08-09T06:12:36.638Z,98603.25
2022-08-09T06:15:12.885Z,98610.78
2022-08-09T06:17:46.809Z,98603.88
2022-08-09T06:20:20.996Z,98602.56
2022-08-09T06:22:54.280Z,98606.31
2022-08-09T06:25:28.460Z,98612.59
2022-08-09T06:28:01.754Z,98614.06
2022-08-09T06:30:36.827Z,98617.88
2022-08-09T06:33:30.089Z,98617.53
2022-08-09T06:36:03.215Z,98618.09
2022-08-09T06:38:47.285Z,98606.63
2022-08-09T06:41:23.430Z,98623.50
2022-08-09T06:44:18.198Z,98619.31
2022-08-09T06:46:54.975Z,98623.81
2022-08-09T06:49:44.411Z,98624.81
2022-08-09T06:52:23.653Z,98624.00
2022-08-09T06:54:58.479Z,98631.03
2022-08-09T06:58:01.436Z,98635.47
2022-08-09T07:00:51.244Z,98631.94
2022-08-09T07:03:19.780Z,98625.78
2022-08-09T07:06:03.833Z,98620.50
2022-08-09T07:08:39.478Z,98627.50
2022-08-09T07:11:12.955Z,98622.22
2022-08-09T07:14:04.952Z,98620.31
2022-08-09T07:16:47.803Z,98618.41
2022-08-09T07:19:24.618Z,98622.75
2022-08-09T07:21:59.713Z,98620.03
2022-08-09T07:24:40.043Z,98619.00
2022-08-09T07:27:27.407Z,98614.31
2022-08-09T07:30:08.464Z,98626.81
2022-08-09T07:32:43.199Z,98626.28
2022-08-09T07:35:20.776Z,98631.75
2022-08-09T07:37:59.506Z,98631.97
2022-08-09T07:40:54.173Z,98628.38
2022-08-09T07:43:29.096Z,98631.94
2022-08-09T07:46:03.117Z,98628.59
2022-08-09T07:48:36.385Z,98634.53
2022-08-09T07:52:03.093Z,98634.69
2022-08-09T07:54:08.530Z,98633.00
2022-08-09T07:56:49.019Z,98638.44
2022-08-09T07:59:33.718Z,98630.69
2022-08-09T08:02:09.064Z,98632.66
2022-08-09T08:04:42.799Z,98627.06
2022-08-09T08:08:44.194Z,98628.63
2022-08-09T08:10:18.275Z,98641.91
2022-08-09T08:12:51.785Z,98629.31
2022-08-09T08:15:24.996Z,98631.16
2022-08-09T08:17:58.811Z,98632.69
2022-08-09T08:20:33.384Z,98631.16
2022-08-09T08:23:17.442Z,98621.88
2022-08-09T08:26:06.090Z,98629.25
2022-08-09T08:28:39.969Z,98625.00
2022-08-09T08:31:15.258Z,98628.81
2022-08-09T08:33:53.371Z,98631.31
2022-08-09T08:36:30.754Z,98620.19
2022-08-09T08:39:05.914Z,98631.22
2022-08-09T08:41:51.823Z,98626.31
2022-08-09T08:44:29.048Z,98631.50
2022-08-09T08:47:12.149Z,98637.25
2022-08-09T08:49:49.351Z,98630.22
2022-08-09T08:55:23.352Z,98633.63
2022-08-09T08:57:58.169Z,98629.66
2022-08-09T09:00:34.216Z,98647.50
2022-08-09T09:03:11.727Z,98644.28
2022-08-09T09:06:03.326Z,98647.91
2022-08-09T09:08:42.523Z,98637.28
2022-08-09T09:11:19.850Z,98642.41
2022-08-09T09:13:58.574Z,98652.69
2022-08-09T09:16:35.103Z,98644.94
2022-08-09T09:22:11.699Z,98633.25
2022-08-09T09:24:49.144Z,98633.09
2022-08-09T09:28:04.248Z,98620.13
2022-08-09T09:30:39.776Z,98620.59
2022-08-09T09:33:16.269Z,98614.34
2022-08-09T09:36:02.321Z,98616.88
2022-08-09T09:38:48.653Z,98604.66
2022-08-09T09:41:33.340Z,98615.66
2022-08-09T09:44:31.817Z,98601.09
2022-08-09T09:47:09.763Z,98615.84
2022-08-09T09:50:06.967Z,98620.53
2022-08-09T09:52:53.921Z,98615.22
2022-08-09T09:55:32.835Z,98609.00
2022-08-09T09:58:16.530Z,98608.13
2022-08-09T10:00:59.210Z,98602.00
2022-08-09T10:03:42.682Z,98600.25
2022-08-09T10:06:16.962Z,98616.41
2022-08-09T10:08:57.311Z,98619.09
2022-08-09T10:12:00.875Z,98614.72
2022-08-09T10:14:33.137Z,98612.94
2022-08-09T10:17:51.308Z,98614.78
2022-08-09T10:20:27.007Z,98609.66
2022-08-09T10:23:20.331Z,98613.25
2022-08-09T10:26:07.217Z,98611.25
2022-08-09T10:28:48.961Z,98612.03
2022-08-09T10:32:35.762Z,98617.34
2022-08-09T10:34:37.328Z,98625.34
2022-08-09T10:37:13.898Z,98605.97
2022-08-09T10:39:49.901Z,98608.63
2022-08-09T10:42:27.050Z,98606.13
2022-08-09T10:45:04.591Z,98594.59
2022-08-09T10:48:17.275Z,98587.44
2022-08-09T10:51:12.254Z,98623.44
2022-08-09T10:54:04.673Z,98597.44
2022-08-09T10:56:39.854Z,98587.56
2022-08-09T10:59:31.911Z,98592.91
2022-08-09T11:03:16.002Z,98585.28
2022-08-09T11:05:33.599Z,98576.50
2022-08-09T11:08:47.105Z,98583.38
2022-08-09T11:11:21.556Z,98582.34
2022-08-09T11:14:34.000Z,98582.38
2022-08-09T11:18:03.782Z,98585.81
2022-08-09T11:20:49.701Z,98582.47
2022-08-09T11:23:30.197Z,98594.00
2022-08-09T11:26:04.926Z,98576.56
2022-08-09T11:28:56.196Z,98581.81
2022-08-09T11:31:53.014Z,98570.34
2022-08-09T11:34:44.757Z,98579.06
2022-08-09T11:37:31.339Z,98574.69
2022-08-09T11:40:17.804Z,98570.16
2022-08-09T11:42:56.495Z,98577.88
2022-08-09T11:45:42.352Z,98571.78
2022-08-09T11:48:26.143Z,98569.16
2022-08-09T11:52:56.850Z,98571.72
2022-08-09T11:54:28.596Z,98573.75
2022-08-09T11:58:00.354Z,98571.06
2022-08-09T12:00:35.807Z,98555.41
2022-08-09T12:03:54.977Z,98543.13
2022-08-09T12:06:17.955Z,98557.06
2022-08-09T12:09:01.472Z,98553.34
2022-08-09T12:11:37.949Z,98565.69
2022-08-09T12:14:36.770Z,98546.44
2022-08-09T12:17:27.864Z,98559.69
2022-08-09T12:20:16.335Z,98555.41
2022-08-09T12:22:56.408Z,98547.50
2022-08-09T12:25:37.563Z,98540.34
2022-08-09T12:29:10.125Z,98535.97
2022-08-09T12:31:58.154Z,98532.34
2022-08-09T12:34:15.564Z,98540.25
2022-08-09T12:36:58.725Z,98541.25
2022-08-09T12:39:42.861Z,98541.22
2022-08-09T12:42:16.756Z,98548.19
2022-08-09T12:44:52.269Z,98538.56
2022-08-09T12:47:28.501Z,98537.72
2022-08-09T12:50:19.677Z,98531.66
2022-08-09T12:53:08.935Z,98530.84
2022-08-09T12:56:15.617Z,98525.56
2022-08-09T12:59:05.094Z,98542.97
2022-08-09T13:01:47.011Z,98542.13
2022-08-09T13:04:37.523Z,98531.63
2022-08-09T13:07:16.315Z,98531.69
2022-08-09T13:10:02.827Z,98535.97
2022-08-09T13:13:09.454Z,98531.53
2022-08-09T13:15:55.908Z,98517.44
2022-08-09T13:18:31.294Z,98513.19
2022-08-09T13:22:36.146Z,98528.91
2022-08-09T13:24:53.728Z,98509.69
2022-08-09T13:27:29.094Z,98516.72
2022-08-09T13:30:50.438Z,98508.06
2022-08-09T13:32:59.459Z,98501.88
2022-08-09T13:35:34.212Z,98500.16
2022-08-09T13:38:32.993Z,98497.34
2022-08-09T13:41:56.536Z,98497.50
2022-08-09T13:43:57.394Z,98499.19
2022-08-09T13:47:17.794Z,98494.78
2022-08-09T13:49:25.424Z,98483.38
2022-08-09T13:52:11.526Z,98478.91
2022-08-09T13:55:00.553Z,98470.16
2022-08-09T13:57:42.863Z,98478.84
2022-08-09T14:00:18.588Z,98482.31
2022-08-09T14:03:03.221Z,98478.75
2022-08-09T14:05:57.137Z,98487.38
2022-08-09T14:08:34.970Z,98489.31
2022-08-09T14:11:15.851Z,98479.72
2022-08-09T14:14:23.786Z,98484.94
2022-08-09T14:16:44.466Z,98490.97
2022-08-09T14:19:17.948Z,98485.84
2022-08-09T14:21:54.201Z,98474.53
2022-08-09T14:24:32.178Z,98487.44
2022-08-09T14:27:19.869Z,98488.50
2022-08-09T14:30:35.091Z,98492.81
2022-08-09T14:32:48.828Z,98479.81
2022-08-09T14:35:22.902Z,98470.91
2022-08-09T14:38:04.292Z,98472.53
2022-08-09T14:41:01.585Z,98466.47
2022-08-09T14:43:47.565Z,98475.25
2022-08-09T14:46:58.975Z,98468.13
2022-08-09T14:49:19.227Z,98474.25
2022-08-09T14:51:58.335Z,98469.03
2022-08-09T14:54:32.297Z,98468.97
2022-08-09T14:57:08.072Z,98469.03
2022-08-09T14:59:45.496Z,98458.50
2022-08-09T15:02:23.098Z,98455.72
2022-08-09T15:04:56.174Z,98461.19
2022-08-09T15:07:29.367Z,98467.41
2022-08-09T15:10:14.207Z,98470.91
2022-08-09T15:12:48.982Z,98456.91
2022-08-09T15:15:23.879Z,98464.75
2022-08-09T15:17:58.701Z,98460.38
2022-08-09T15:21:57.311Z,98468.25
2022-08-09T15:24:01.528Z,98458.63
2022-08-09T15:26:30.948Z,98463.16
2022-08-09T15:29:05.807Z,98454.34
2022-08-09T15:31:41.257Z,98444.66
2022-08-09T15:34:31.932Z,98450.69
2022-08-09T15:37:37.715Z,98450.59
2022-08-09T15:40:25.262Z,98449.81
2022-08-09T15:43:05.718Z,98456.97
2022-08-09T15:46:02.843Z,98438.31
2022-08-09T15:48:32.500Z,98454.19
2022-08-09T15:51:30.085Z,98443.81
2022-08-09T15:54:03.155Z,98453.31
2022-08-09T15:56:41.255Z,98441.13
2022-08-09T15:59:17.826Z,98437.66
2022-08-09T16:01:51.480Z,98437.72
2022-08-09T16:04:24.591Z,98439.44
2022-08-09T16:07:03.586Z,98441.25
2022-08-09T16:09:57.745Z,98440.41
2022-08-09T16:12:31.066Z,98455.28
2022-08-09T16:16:11.731Z,98451.00
2022-08-09T16:17:59.228Z,98437.81
2022-08-09T16:20:33.046Z,98441.34
2022-08-09T16:23:07.890Z,98444.88
2022-08-09T16:25:44.313Z,98439.56
2022-08-09T16:28:25.741Z,98440.47
2022-08-09T16:30:59.608Z,98445.81
2022-08-09T16:33:34.882Z,98448.31
2022-08-09T16:36:14.402Z,98441.44
2022-08-09T16:38:53.527Z,98436.13
2022-08-09T16:42:02.093Z,98428.22
2022-08-09T16:44:19.975Z,98443.22
2022-08-09T16:47:01.908Z,98440.59
2022-08-09T16:50:31.208Z,98457.25
2022-08-09T16:52:41.231Z,98444.94
2022-08-09T16:55:18.170Z,98444.03
2022-08-09T16:58:09.093Z,98444.06
2022-08-09T17:00:46.519Z,98443.19
2022-08-09T17:03:21.482Z,98445.00
2022-08-09T17:06:08.775Z,98452.00
2022-08-09T17:09:01.446Z,98452.16
2022-08-09T17:11:41.480Z,98453.78
2022-08-09T17:14:16.252Z,98444.09
2022-08-09T17:17:03.665Z,98449.41
2022-08-09T17:20:32.891Z,98446.88
2022-08-09T17:22:50.616Z,98452.97
2022-08-09T17:25:25.752Z,98452.97
2022-08-09T17:28:08.062Z,98456.56
2022-08-09T17:30:47.859Z,98455.69
2022-08-09T17:33:22.611Z,98447.78
2022-08-09T17:35:56.411Z,98447.84
2022-08-09T17:38:37.202Z,98446.13
2022-08-09T17:41:12.440Z,98449.59
2022-08-09T17:44:36.416Z,98450.50
2022-08-09T17:46:41.563Z,98454.03
2022-08-09T17:49:30.420Z,98451.41
2022-08-09T17:52:04.477Z,98460.22
2022-08-09T17:54:38.756Z,98458.50
2022-08-09T17:57:24.385Z,98460.28
2022-08-09T18:00:12.365Z,98455.03
2022-08-09T18:02:57.924Z,98451.50
2022-08-09T18:05:43.448Z,98454.13
2022-08-09T18:08:17.111Z,98446.28
2022-08-09T18:11:01.512Z,98463.78
2022-08-09T18:13:38.728Z,98458.56
2022-08-09T18:16:30.367Z,98465.56
2022-08-09T18:20:53.815Z,98462.06
2022-08-09T18:21:57.700Z,98468.19
2022-08-09T18:24:34.213Z,98469.94
2022-08-09T18:27:08.783Z,98467.28
2022-08-09T18:30:40.267Z,98471.63
2022-08-09T18:32:37.172Z,98476.88
2022-08-09T18:35:11.225Z,98477.72
2022-08-09T18:37:48.928Z,98470.72
2022-08-09T18:40:28.008Z,98477.69
2022-08-09T18:43:03.059Z,98474.19
2022-08-09T18:46:49.929Z,98485.44
2022-08-09T18:48:32.785Z,98484.56
2022-08-09T18:51:06.644Z,98489.81
2022-08-09T18:54:00.842Z,98493.25
2022-08-09T18:56:33.677Z,98496.69
2022-08-09T18:59:06.807Z,98499.28
2022-08-09T19:01:45.972Z,98505.34
2022-08-09T19:04:34.691Z,98509.66
2022-08-09T19:07:08.504Z,98514.81
2022-08-09T19:10:17.154Z,98519.94
2022-08-09T19:12:37.167Z,98516.38
2022-08-09T19:15:12.672Z,98530.22
2022-08-09T19:17:56.399Z,98532.75
2022-08-09T19:20:38.931Z,98532.56
2022-08-09T19:23:16.683Z,98534.13
2022-08-09T19:26:02.114Z,98534.09
2022-08-09T19:28:40.026Z,98546.91
2022-08-09T19:31:16.785Z,98537.19
2022-08-09T19:33:50.247Z,98536.13
2022-08-09T19:36:30.889Z,98542.09
2022-08-09T19:39:08.261Z,98541.94
2022-08-09T19:41:42.397Z,98538.31
2022-08-09T19:44:17.748Z,98541.63
2022-08-09T19:46:53.879Z,98551.00
2022-08-09T19:50:10.378Z,98550.81
2022-08-09T19:52:22.196Z,98546.19
2022-08-09T19:54:57.407Z,98553.09
2022-08-09T19:57:32.232Z,98555.44
2022-08-09T20:00:10.269Z,98555.38
2022-08-09T20:04:06.975Z,98559.53
2022-08-09T20:05:46.002Z,98557.91
2022-08-09T20:08:33.567Z,98554.78
2022-08-09T20:11:08.761Z,98561.53
2022-08-09T20:13:41.966Z,98558.03
2022-08-09T20:16:37.289Z,98566.47
2022-08-09T20:19:48.868Z,98559.34
2022-08-09T20:22:14.434Z,98561.72
2022-08-09T20:24:54.233Z,98560.44
2022-08-09T20:27:29.312Z,98559.44
2022-08-09T20:30:02.956Z,98555.00
2022-08-09T20:32:38.136Z,98554.91
2022-08-09T20:35:11.595Z,98560.75
2022-08-09T20:38:24.026Z,98558.88
2022-08-09T20:40:41.158Z,98565.66
2022-08-09T20:43:18.766Z,98571.66
2022-08-09T20:46:01.453Z,98568.81
2022-08-09T20:48:49.553Z,98569.47
2022-08-09T20:51:24.248Z,98567.63
2022-08-09T20:53:57.444Z,98565.31
2022-08-09T20:56:32.030Z,98567.63
2022-08-09T20:59:05.401Z,98574.56
2022-08-09T21:01:50.303Z,98576.38
2022-08-09T21:05:51.830Z,98577.03
2022-08-09T21:07:17.669Z,98584.19
2022-08-09T21:09:56.951Z,98584.91
2022-08-09T21:12:33.353Z,98578.03
2022-08-09T21:15:12.346Z,98582.59
2022-08-09T21:18:23.587Z,98586.63
2022-08-09T21:20:40.191Z,98584.59
2022-08-09T21:23:15.499Z,98587.78
2022-08-09T21:25:59.958Z,98588.69
2022-08-09T21:28:36.439Z,98591.22
2022-08-09T21:31:13.520Z,98592.63
2022-08-09T21:33:56.682Z,98597.69
2022-08-09T21:36:30.591Z,98601.09
2022-08-09T21:39:05.889Z,98601.00
2022-08-09T21:42:05.974Z,98604.34
2022-08-09T21:44:35.410Z,98594.56
2022-08-09T21:47:14.137Z,98604.72
2022-08-09T21:49:51.593Z,98600.16
2022-08-09T21:52:25.083Z,98604.31
2022-08-09T21:55:04.206Z,98600.69
2022-08-09T21:57:59.706Z,98597.88
2022-08-09T22:00:36.527Z,98592.50
2022-08-09T22:03:19.268Z,98602.13
2022-08-09T22:05:53.163Z,98604.69
2022-08-09T22:08:27.417Z,98594.09
2022-08-09T22:12:04.346Z,98600.88
2022-08-09T22:13:53.657Z,98605.75
2022-08-09T22:16:28.309Z,98604.19
2022-08-09T22:19:02.049Z,98606.00
2022-08-09T22:21:55.223Z,98603.25
2022-08-09T22:24:28.632Z,98604.88
2022-08-09T22:27:01.830Z,98612.44
2022-08-09T22:29:47.669Z,98602.22
2022-08-09T22:32:29.993Z,98602.06
2022-08-09T22:35:06.669Z,98598.63
2022-08-09T22:38:06.499Z,98600.13
2022-08-09T22:40:49.304Z,98600.13
2022-08-09T22:44:01.221Z,98605.16
2022-08-09T22:48:16.513Z,98602.25
2022-08-09T22:49:19.250Z,98600.38
2022-08-09T22:51:57.118Z,98608.69
2022-08-09T22:54:30.862Z,98607.47
2022-08-09T22:57:04.671Z,98602.06
2022-08-09T22:59:55.954Z,98601.84
2022-08-09T23:02:31.047Z,98603.41
2022-08-09T23:05:06.458Z,98599.09
2022-08-09T23:08:27.382Z,98607.69
2022-08-09T23:10:50.470Z,98598.19
2022-08-09T23:13:23.594Z,98607.28
2022-08-09T23:16:02.680Z,98599.97
2022-08-09T23:18:36.943Z,98595.31
2022-08-09T23:21:13.826Z,98598.22
2022-08-09T23:24:05.317Z,98587.00
2022-08-09T23:26:40.855Z,98587.25
2022-08-09T23:29:14.598Z,98587.50
2022-08-09T23:31:51.325Z,98589.19
2022-08-09T23:34:27.525Z,98591.72
2022-08-09T23:37:02.071Z,98584.16
2022-08-09T23:39:35.432Z,98576.41
2022-08-09T23:42:08.820Z,98579.97
2022-08-09T23:44:42.071Z,98580.84
2022-08-09T23:47:15.254Z,98573.06
2022-08-09T23:49:48.429Z,98577.38
2022-08-09T23:52:24.366Z,98577.34
2022-08-09T23:54:57.686Z,98573.69
2022-08-09T23:57:30.932Z,98574.53
